Alix, Arkansas
Current Conditions -  °F | °C
As of 6:53 AM on Monday 20 Oct 2014 (Local Time) from KFSM Reporting Station
Overcast Overcast  
Wind Chill: 55°   Ceiling: 10000
Heat Index: 55°   Visibility: 10mi
Dew Point: 52°   Wind: 3mph
Humidity: 89%   Direction: 40°NE
Pressure: 30.08"   Gusts: NA
Location:  35.43°N, 93.73°W
Report Text: KFSM 201153Z 04003KT 10SM FEW046 FEW075 OVC100 13/11 A3008 RMK AO2 RAB04E47 SLP183 P0006 60006 70006 T01280111 10133 20117 53009
Loading
Personal Weather Stations






























Interactive Weather Map New forecast layout! Learn more

10-Day Weather Forecast

Advertisements
Track Severe Weather on mobile